Baltimore, Maryland
Traffic Map
Current Weather Conditions
Baltimore, Maryland
Broken Clouds Thunderstorm
Broken Clouds
88°
Feels Like: 93°
Wind Chill: 88° Ceiling: 6500
Heat Index: 93° Visibility: 10mi
Dew Point: 70° Wind: 6mph
Humidity: 55% Direction: 200° (SSW)
Pressure: 29.85in Gusts: 0mph
Raw Report DataKBWI 022112Z 20005KT 10SM TS BKN065CB BKN250 31/21 A2985 RMK AO2 TSB07 TS SW MOV E
Traffic Incident Summary
Active as of:
Severity:
Category:
InformationThere was an issue retrieving the traffic information for this location. Please try a different location or try again shortly.
Advertisements
Track Severe Weather on mobile